sensor_id;sensor_type;location;lat;lon;timestamp;temperature;humidity
48946;DHT22;34999;50.940;3.998;2023-06-14T00:00:06;18.80;99.90
48946;DHT22;34999;50.940;3.998;2023-06-14T00:02:35;18.70;99.90
48946;DHT22;34999;50.940;3.998;2023-06-14T00:05:04;18.70;99.90
48946;DHT22;34999;50.940;3.998;2023-06-14T00:07:37;18.70;99.90
48946;DHT22;34999;50.940;3.998;2023-06-14T00:10:10;18.60;99.90
48946;DHT22;34999;50.940;3.998;2023-06-14T00:12:41;18.60;99.90
48946;DHT22;34999;50.940;3.998;2023-06-14T00:15:09;18.50;99.90
48946;DHT22;34999;50.940;3.998;2023-06-14T00:17:37;18.50;99.90
48946;DHT22;34999;50.940;3.998;2023-06-14T00:20:07;18.40;99.90
48946;DHT22;34999;50.940;3.998;2023-06-14T00:22:36;18.40;99.90
48946;DHT22;34999;50.940;3.998;2023-06-14T00:25:06;18.30;99.90
48946;DHT22;34999;50.940;3.998;2023-06-14T00:27:56;18.30;99.90
48946;DHT22;34999;50.940;3.998;2023-06-14T00:30:25;18.20;99.90
48946;DHT22;34999;50.940;3.998;2023-06-14T00:32:58;18.20;99.90
48946;DHT22;34999;50.940;3.998;2023-06-14T00:35:26;18.10;99.90
48946;DHT22;34999;50.940;3.998;2023-06-14T00:37:55;18.10;99.90
48946;DHT22;34999;50.940;3.998;2023-06-14T00:40:23;18.00;99.90
48946;DHT22;34999;50.940;3.998;2023-06-14T00:42:52;18.00;99.90
48946;DHT22;34999;50.940;3.998;2023-06-14T00:45:22;17.90;99.90
48946;DHT22;34999;50.940;3.998;2023-06-14T00:47:50;17.90;99.90
48946;DHT22;34999;50.940;3.998;2023-06-14T00:50:23;17.80;99.90
48946;DHT22;34999;50.940;3.998;2023-06-14T00:52:51;17.80;99.90
48946;DHT22;34999;50.940;3.998;2023-06-14T00:55:20;17.70;99.90
48946;DHT22;34999;50.940;3.998;2023-06-14T00:57:48;17.70;99.90
48946;DHT22;34999;50.940;3.998;2023-06-14T01:00:17;17.70;99.90
48946;DHT22;34999;50.940;3.998;2023-06-14T01:02:46;17.70;99.90
48946;DHT22;34999;50.940;3.998;2023-06-14T01:05:17;17.60;99.90
48946;DHT22;34999;50.940;3.998;2023-06-14T01:08:05;17.60;99.90
48946;DHT22;34999;50.940;3.998;2023-06-14T01:10:38;17.60;99.90
48946;DHT22;34999;50.940;3.998;2023-06-14T01:13:14;17.60;99.90
48946;DHT22;34999;50.940;3.998;2023-06-14T01:15:45;17.60;99.90
48946;DHT22;34999;50.940;3.998;2023-06-14T01:18:16;17.50;99.90
48946;DHT22;34999;50.940;3.998;2023-06-14T01:20:46;17.40;99.90
48946;DHT22;34999;50.940;3.998;2023-06-14T01:23:19;17.40;99.90
48946;DHT22;34999;50.940;3.998;2023-06-14T01:25:48;17.40;99.90
48946;DHT22;34999;50.940;3.998;2023-06-14T01:28:21;17.40;99.90
48946;DHT22;34999;50.940;3.998;2023-06-14T01:30:54;17.40;99.90
48946;DHT22;34999;50.940;3.998;2023-06-14T01:33:26;17.30;99.90
48946;DHT22;34999;50.940;3.998;2023-06-14T01:35:55;17.30;99.90
48946;DHT22;34999;50.940;3.998;2023-06-14T01:38:26;17.20;99.90
48946;DHT22;34999;50.940;3.998;2023-06-14T01:40:57;17.10;99.90
48946;DHT22;34999;50.940;3.998;2023-06-14T01:43:26;17.10;99.90
48946;DHT22;34999;50.940;3.998;2023-06-14T01:45:57;17.10;99.90
48946;DHT22;34999;50.940;3.998;2023-06-14T01:48:26;17.00;99.90
48946;DHT22;34999;50.940;3.998;2023-06-14T01:50:54;17.00;99.90
48946;DHT22;34999;50.940;3.998;2023-06-14T01:53:24;17.00;99.90
48946;DHT22;34999;50.940;3.998;2023-06-14T01:55:52;17.00;99.90
48946;DHT22;34999;50.940;3.998;2023-06-14T01:58:21;17.00;99.90
48946;DHT22;34999;50.940;3.998;2023-06-14T02:00:51;17.00;99.90
48946;DHT22;34999;50.940;3.998;2023-06-14T02:03:22;16.90;99.90
48946;DHT22;34999;50.940;3.998;2023-06-14T02:05:52;16.90;99.90
48946;DHT22;34999;50.940;3.998;2023-06-14T02:08:21;16.90;99.90
48946;DHT22;34999;50.940;3.998;2023-06-14T02:10:51;16.90;99.90
48946;DHT22;34999;50.940;3.998;2023-06-14T02:13:20;16.90;99.90
48946;DHT22;34999;50.940;3.998;2023-06-14T02:15:48;16.90;99.90
48946;DHT22;34999;50.940;3.998;2023-06-14T02:18:22;16.80;99.90
48946;DHT22;34999;50.940;3.998;2023-06-14T02:20:50;16.80;99.90
48946;DHT22;34999;50.940;3.998;2023-06-14T02:23:19;16.80;99.90
48946;DHT22;34999;50.940;3.998;2023-06-14T02:25:48;16.70;99.90
48946;DHT22;34999;50.940;3.998;2023-06-14T02:28:17;16.70;99.90
48946;DHT22;34999;50.940;3.998;2023-06-14T02:30:45;16.60;99.90
48946;DHT22;34999;50.940;3.998;2023-06-14T02:33:14;16.50;99.90
48946;DHT22;34999;50.940;3.998;2023-06-14T02:35:42;16.50;99.90
48946;DHT22;34999;50.940;3.998;2023-06-14T02:38:11;16.40;99.90
48946;DHT22;34999;50.940;3.998;2023-06-14T02:40:39;16.40;99.90
48946;DHT22;34999;50.940;3.998;2023-06-14T02:43:09;16.30;99.90
48946;DHT22;34999;50.940;3.998;2023-06-14T02:45:39;16.30;99.90
48946;DHT22;34999;50.940;3.998;2023-06-14T02:48:07;16.30;99.90
48946;DHT22;34999;50.940;3.998;2023-06-14T02:50:35;16.30;99.90
48946;DHT22;34999;50.940;3.998;2023-06-14T02:53:04;16.20;99.90
48946;DHT22;34999;50.940;3.998;2023-06-14T02:55:33;16.20;99.90
48946;DHT22;34999;50.940;3.998;2023-06-14T02:58:06;16.20;99.90
48946;DHT22;34999;50.940;3.998;2023-06-14T03:00:34;16.10;99.90
48946;DHT22;34999;50.940;3.998;2023-06-14T03:03:04;16.10;99.90
48946;DHT22;34999;50.940;3.998;2023-06-14T03:05:45;16.00;99.90
48946;DHT22;34999;50.940;3.998;2023-06-14T03:11:38;16.00;99.90
48946;DHT22;34999;50.940;3.998;2023-06-14T03:14:06;15.90;99.90
48946;DHT22;34999;50.940;3.998;2023-06-14T03:16:35;15.90;99.90
48946;DHT22;34999;50.940;3.998;2023-06-14T03:19:05;15.90;99.90
48946;DHT22;34999;50.940;3.998;2023-06-14T03:21:34;15.90;99.90
48946;DHT22;34999;50.940;3.998;2023-06-14T03:24:03;15.90;99.90
48946;DHT22;34999;50.940;3.998;2023-06-14T03:26:31;15.90;99.90
48946;DHT22;34999;50.940;3.998;2023-06-14T03:29:01;15.90;99.90
48946;DHT22;34999;50.940;3.998;2023-06-14T03:31:29;15.90;99.90
48946;DHT22;34999;50.940;3.998;2023-06-14T03:34:00;15.90;99.90
48946;DHT22;34999;50.940;3.998;2023-06-14T03:36:29;15.90;99.90
48946;DHT22;34999;50.940;3.998;2023-06-14T03:38:57;15.90;99.90
48946;DHT22;34999;50.940;3.998;2023-06-14T03:41:26;15.90;99.90
48946;DHT22;34999;50.940;3.998;2023-06-14T03:43:54;15.90;99.90
48946;DHT22;34999;50.940;3.998;2023-06-14T03:46:22;15.90;99.90
48946;DHT22;34999;50.940;3.998;2023-06-14T03:48:51;15.80;99.90
48946;DHT22;34999;50.940;3.998;2023-06-14T03:51:19;15.80;99.90
48946;DHT22;34999;50.940;3.998;2023-06-14T03:53:48;15.80;99.90
48946;DHT22;34999;50.940;3.998;2023-06-14T03:56:37;15.80;99.90
48946;DHT22;34999;50.940;3.998;2023-06-14T03:59:05;15.70;99.90
48946;DHT22;34999;50.940;3.998;2023-06-14T04:01:34;15.70;99.90
48946;DHT22;34999;50.940;3.998;2023-06-14T04:04:02;15.70;99.90
48946;DHT22;34999;50.940;3.998;2023-06-14T04:06:31;15.70;99.90
48946;DHT22;34999;50.940;3.998;2023-06-14T04:09:01;15.60;99.90
48946;DHT22;34999;50.940;3.998;2023-06-14T04:11:30;15.60;99.90
48946;DHT22;34999;50.940;3.998;2023-06-14T04:13:59;15.60;99.90
48946;DHT22;34999;50.940;3.998;2023-06-14T04:16:28;15.50;99.90
48946;DHT22;34999;50.940;3.998;2023-06-14T04:18:57;15.50;99.90
48946;DHT22;34999;50.940;3.998;2023-06-14T04:21:25;15.50;99.90
48946;DHT22;34999;50.940;3.998;2023-06-14T04:23:55;15.50;99.90
48946;DHT22;34999;50.940;3.998;2023-06-14T04:26:25;15.50;99.90
48946;DHT22;34999;50.940;3.998;2023-06-14T04:28:56;15.50;99.90
48946;DHT22;34999;50.940;3.998;2023-06-14T04:31:29;15.50;99.90
48946;DHT22;34999;50.940;3.998;2023-06-14T04:34:00;15.60;99.90
48946;DHT22;34999;50.940;3.998;2023-06-14T04:36:33;15.60;99.90
48946;DHT22;34999;50.940;3.998;2023-06-14T04:39:03;15.60;99.90
48946;DHT22;34999;50.940;3.998;2023-06-14T04:41:34;15.70;99.90
48946;DHT22;34999;50.940;3.998;2023-06-14T04:44:03;15.80;99.90
48946;DHT22;34999;50.940;3.998;2023-06-14T04:46:32;15.80;99.90
48946;DHT22;34999;50.940;3.998;2023-06-14T04:49:14;16.00;99.90
48946;DHT22;34999;50.940;3.998;2023-06-14T04:51:43;16.10;99.90
48946;DHT22;34999;50.940;3.998;2023-06-14T04:54:12;16.20;99.90
48946;DHT22;34999;50.940;3.998;2023-06-14T04:56:42;16.30;99.90
48946;DHT22;34999;50.940;3.998;2023-06-14T04:59:11;16.50;99.90
48946;DHT22;34999;50.940;3.998;2023-06-14T05:01:41;16.50;99.90
48946;DHT22;34999;50.940;3.998;2023-06-14T05:04:15;16.70;99.90
48946;DHT22;34999;50.940;3.998;2023-06-14T05:07:03;16.80;99.90
48946;DHT22;34999;50.940;3.998;2023-06-14T05:09:33;16.90;99.90
48946;DHT22;34999;50.940;3.998;2023-06-14T05:12:03;17.10;99.90
48946;DHT22;34999;50.940;3.998;2023-06-14T05:14:31;17.30;99.90
48946;DHT22;34999;50.940;3.998;2023-06-14T05:17:00;17.40;99.90
48946;DHT22;34999;50.940;3.998;2023-06-14T05:19:29;17.50;99.90
48946;DHT22;34999;50.940;3.998;2023-06-14T05:21:57;17.60;99.90
48946;DHT22;34999;50.940;3.998;2023-06-14T05:24:26;17.70;99.90
48946;DHT22;34999;50.940;3.998;2023-06-14T05:26:56;17.90;99.90
48946;DHT22;34999;50.940;3.998;2023-06-14T05:29:26;18.00;99.90
48946;DHT22;34999;50.940;3.998;2023-06-14T05:31:56;18.10;99.90
48946;DHT22;34999;50.940;3.998;2023-06-14T05:34:25;18.30;99.90
48946;DHT22;34999;50.940;3.998;2023-06-14T05:36:53;18.50;99.90
48946;DHT22;34999;50.940;3.998;2023-06-14T05:39:22;18.60;99.90
48946;DHT22;34999;50.940;3.998;2023-06-14T05:41:51;18.60;99.90
48946;DHT22;34999;50.940;3.998;2023-06-14T05:44:19;18.70;99.90
48946;DHT22;34999;50.940;3.998;2023-06-14T05:46:48;18.80;99.90
48946;DHT22;34999;50.940;3.998;2023-06-14T05:49:17;18.80;99.90
48946;DHT22;34999;50.940;3.998;2023-06-14T05:51:45;19.00;99.90
48946;DHT22;34999;50.940;3.998;2023-06-14T05:54:14;19.10;99.90
48946;DHT22;34999;50.940;3.998;2023-06-14T05:56:43;19.10;99.90
48946;DHT22;34999;50.940;3.998;2023-06-14T05:59:11;19.20;99.90
48946;DHT22;34999;50.940;3.998;2023-06-14T06:01:39;19.30;99.90
48946;DHT22;34999;50.940;3.998;2023-06-14T06:04:10;19.30;99.90
48946;DHT22;34999;50.940;3.998;2023-06-14T06:06:38;19.40;99.90
48946;DHT22;34999;50.940;3.998;2023-06-14T06:09:06;19.60;99.90
48946;DHT22;34999;50.940;3.998;2023-06-14T06:11:35;19.60;99.90
48946;DHT22;34999;50.940;3.998;2023-06-14T06:14:18;19.70;99.90
48946;DHT22;34999;50.940;3.998;2023-06-14T06:16:47;19.80;99.90
48946;DHT22;34999;50.940;3.998;2023-06-14T06:19:16;19.90;99.90
48946;DHT22;34999;50.940;3.998;2023-06-14T06:21:45;20.10;99.90
48946;DHT22;34999;50.940;3.998;2023-06-14T06:24:13;20.20;99.90
48946;DHT22;34999;50.940;3.998;2023-06-14T06:26:42;20.20;99.90
48946;DHT22;34999;50.940;3.998;2023-06-14T06:29:10;20.40;99.90
48946;DHT22;34999;50.940;3.998;2023-06-14T06:31:39;20.40;99.90
48946;DHT22;34999;50.940;3.998;2023-06-14T06:34:07;20.60;99.90
48946;DHT22;34999;50.940;3.998;2023-06-14T06:36:37;20.80;99.90
48946;DHT22;34999;50.940;3.998;2023-06-14T06:39:05;20.90;99.90
48946;DHT22;34999;50.940;3.998;2023-06-14T06:41:39;21.00;99.90
48946;DHT22;34999;50.940;3.998;2023-06-14T06:44:26;21.10;99.90
48946;DHT22;34999;50.940;3.998;2023-06-14T06:46:54;21.10;99.90
48946;DHT22;34999;50.940;3.998;2023-06-14T06:49:22;21.20;99.90
48946;DHT22;34999;50.940;3.998;2023-06-14T06:52:02;21.30;99.90
48946;DHT22;34999;50.940;3.998;2023-06-14T06:54:32;21.40;99.90
48946;DHT22;34999;50.940;3.998;2023-06-14T06:57:01;21.60;99.90
48946;DHT22;34999;50.940;3.998;2023-06-14T06:59:29;21.70;99.90
48946;DHT22;34999;50.940;3.998;2023-06-14T07:01:58;21.80;99.90
48946;DHT22;34999;50.940;3.998;2023-06-14T07:04:26;21.80;99.90
48946;DHT22;34999;50.940;3.998;2023-06-14T07:06:54;22.00;99.90
48946;DHT22;34999;50.940;3.998;2023-06-14T07:09:24;22.10;99.90
48946;DHT22;34999;50.940;3.998;2023-06-14T07:11:52;22.20;99.90
48946;DHT22;34999;50.940;3.998;2023-06-14T07:14:20;22.40;99.90
48946;DHT22;34999;50.940;3.998;2023-06-14T07:16:50;22.60;99.90
48946;DHT22;34999;50.940;3.998;2023-06-14T07:19:19;22.60;99.90
48946;DHT22;34999;50.940;3.998;2023-06-14T07:21:47;22.70;99.90
48946;DHT22;34999;50.940;3.998;2023-06-14T07:24:16;22.80;99.90
48946;DHT22;34999;50.940;3.998;2023-06-14T07:26:45;22.90;99.90
48946;DHT22;34999;50.940;3.998;2023-06-14T07:29:15;23.10;99.90
48946;DHT22;34999;50.940;3.998;2023-06-14T07:31:43;23.20;99.90
48946;DHT22;34999;50.940;3.998;2023-06-14T07:34:12;23.20;99.90
48946;DHT22;34999;50.940;3.998;2023-06-14T07:36:40;23.20;99.90
48946;DHT22;34999;50.940;3.998;2023-06-14T07:39:11;23.30;99.90
48946;DHT22;34999;50.940;3.998;2023-06-14T07:41:39;23.40;99.90
48946;DHT22;34999;50.940;3.998;2023-06-14T07:44:09;23.60;99.90
48946;DHT22;34999;50.940;3.998;2023-06-14T07:46:37;23.60;99.90
48946;DHT22;34999;50.940;3.998;2023-06-14T07:49:06;23.80;99.90
48946;DHT22;34999;50.940;3.998;2023-06-14T07:55:00;24.10;99.90
48946;DHT22;34999;50.940;3.998;2023-06-14T07:57:28;24.30;99.90
48946;DHT22;34999;50.940;3.998;2023-06-14T07:59:58;24.30;99.90
48946;DHT22;34999;50.940;3.998;2023-06-14T08:02:26;24.30;99.90
48946;DHT22;34999;50.940;3.998;2023-06-14T08:04:55;24.40;99.90
48946;DHT22;34999;50.940;3.998;2023-06-14T08:07:24;24.50;99.90
48946;DHT22;34999;50.940;3.998;2023-06-14T08:09:52;24.60;99.90
48946;DHT22;34999;50.940;3.998;2023-06-14T08:12:21;24.90;99.90
48946;DHT22;34999;50.940;3.998;2023-06-14T08:14:49;25.00;99.90
48946;DHT22;34999;50.940;3.998;2023-06-14T08:17:40;25.30;99.90
48946;DHT22;34999;50.940;3.998;2023-06-14T08:20:09;25.30;99.90
48946;DHT22;34999;50.940;3.998;2023-06-14T08:22:38;25.30;99.90
48946;DHT22;34999;50.940;3.998;2023-06-14T08:25:09;25.40;99.90
48946;DHT22;34999;50.940;3.998;2023-06-14T08:27:39;25.60;99.90
48946;DHT22;34999;50.940;3.998;2023-06-14T08:30:09;25.70;99.90
48946;DHT22;34999;50.940;3.998;2023-06-14T08:32:39;25.80;99.90
48946;DHT22;34999;50.940;3.998;2023-06-14T08:35:08;25.80;99.90
48946;DHT22;34999;50.940;3.998;2023-06-14T08:37:38;26.00;99.90
48946;DHT22;34999;50.940;3.998;2023-06-14T08:40:17;26.20;99.90
48946;DHT22;34999;50.940;3.998;2023-06-14T08:42:52;26.30;99.90
48946;DHT22;34999;50.940;3.998;2023-06-14T08:45:21;26.40;99.90
48946;DHT22;34999;50.940;3.998;2023-06-14T08:47:55;26.50;99.90
48946;DHT22;34999;50.940;3.998;2023-06-14T08:50:27;26.50;99.90
48946;DHT22;34999;50.940;3.998;2023-06-14T08:53:00;26.70;99.90
48946;DHT22;34999;50.940;3.998;2023-06-14T08:55:30;26.80;99.90
48946;DHT22;34999;50.940;3.998;2023-06-14T08:58:04;26.90;99.90
48946;DHT22;34999;50.940;3.998;2023-06-14T09:00:33;26.90;99.90
48946;DHT22;34999;50.940;3.998;2023-06-14T09:03:03;27.10;99.90
48946;DHT22;34999;50.940;3.998;2023-06-14T09:05:32;27.20;99.90
48946;DHT22;34999;50.940;3.998;2023-06-14T09:08:01;27.30;99.90
48946;DHT22;34999;50.940;3.998;2023-06-14T09:10:33;27.40;99.90
48946;DHT22;34999;50.940;3.998;2023-06-14T09:13:02;27.50;99.90
48946;DHT22;34999;50.940;3.998;2023-06-14T09:15:31;27.60;99.90
48946;DHT22;34999;50.940;3.998;2023-06-14T09:18:02;27.60;99.90
48946;DHT22;34999;50.940;3.998;2023-06-14T09:20:33;27.80;99.90
48946;DHT22;34999;50.940;3.998;2023-06-14T09:23:02;28.00;99.90
48946;DHT22;34999;50.940;3.998;2023-06-14T09:25:32;28.20;99.90
48946;DHT22;34999;50.940;3.998;2023-06-14T09:28:09;28.20;99.90
48946;DHT22;34999;50.940;3.998;2023-06-14T09:30:40;28.30;99.90
48946;DHT22;34999;50.940;3.998;2023-06-14T09:33:10;28.50;99.90
48946;DHT22;34999;50.940;3.998;2023-06-14T09:35:39;28.60;99.90
48946;DHT22;34999;50.940;3.998;2023-06-14T09:38:08;28.70;99.50
48946;DHT22;34999;50.940;3.998;2023-06-14T09:40:37;28.80;99.90
48946;DHT22;34999;50.940;3.998;2023-06-14T09:43:06;28.80;99.70
48946;DHT22;34999;50.940;3.998;2023-06-14T09:45:38;28.70;99.90
48946;DHT22;34999;50.940;3.998;2023-06-14T09:48:09;28.80;99.90
48946;DHT22;34999;50.940;3.998;2023-06-14T09:50:39;29.00;99.90
48946;DHT22;34999;50.940;3.998;2023-06-14T09:53:10;29.20;99.90
48946;DHT22;34999;50.940;3.998;2023-06-14T09:55:40;29.30;99.90
48946;DHT22;34999;50.940;3.998;2023-06-14T09:58:10;29.20;99.10
48946;DHT22;34999;50.940;3.998;2023-06-14T10:00:40;29.20;99.50
48946;DHT22;34999;50.940;3.998;2023-06-14T10:03:14;29.20;97.00
48946;DHT22;34999;50.940;3.998;2023-06-14T10:05:45;29.20;96.60
48946;DHT22;34999;50.940;3.998;2023-06-14T10:08:16;29.10;98.00
48946;DHT22;34999;50.940;3.998;2023-06-14T10:10:46;29.20;98.70
48946;DHT22;34999;50.940;3.998;2023-06-14T10:13:15;29.20;96.10
48946;DHT22;34999;50.940;3.998;2023-06-14T10:15:51;29.30;95.70
48946;DHT22;34999;50.940;3.998;2023-06-14T10:18:31;29.10;96.00
48946;DHT22;34999;50.940;3.998;2023-06-14T10:21:06;29.20;94.70
48946;DHT22;34999;50.940;3.998;2023-06-14T10:23:39;29.10;95.40
48946;DHT22;34999;50.940;3.998;2023-06-14T10:26:18;28.90;95.90
48946;DHT22;34999;50.940;3.998;2023-06-14T10:28:57;29.00;95.60
48946;DHT22;34999;50.940;3.998;2023-06-14T10:31:51;29.20;95.10
48946;DHT22;34999;50.940;3.998;2023-06-14T10:34:27;29.40;96.40
48946;DHT22;34999;50.940;3.998;2023-06-14T10:37:04;29.50;95.50
48946;DHT22;34999;50.940;3.998;2023-06-14T10:39:37;29.20;96.30
48946;DHT22;34999;50.940;3.998;2023-06-14T10:42:06;29.20;97.40
48946;DHT22;34999;50.940;3.998;2023-06-14T10:44:42;29.40;96.40
48946;DHT22;34999;50.940;3.998;2023-06-14T10:47:25;29.60;96.50
48946;DHT22;34999;50.940;3.998;2023-06-14T10:49:57;30.00;95.90
48946;DHT22;34999;50.940;3.998;2023-06-14T10:52:27;29.90;95.40
48946;DHT22;34999;50.940;3.998;2023-06-14T10:55:00;29.90;94.80
48946;DHT22;34999;50.940;3.998;2023-06-14T10:57:31;30.10;95.10
48946;DHT22;34999;50.940;3.998;2023-06-14T11:00:15;30.10;95.10
48946;DHT22;34999;50.940;3.998;2023-06-14T11:03:01;30.20;94.80
48946;DHT22;34999;50.940;3.998;2023-06-14T11:05:49;30.30;93.70
48946;DHT22;34999;50.940;3.998;2023-06-14T11:09:04;30.30;94.60
48946;DHT22;34999;50.940;3.998;2023-06-14T11:11:38;30.50;93.90
48946;DHT22;34999;50.940;3.998;2023-06-14T11:14:07;30.50;93.00
48946;DHT22;34999;50.940;3.998;2023-06-14T11:16:36;30.50;93.30
48946;DHT22;34999;50.940;3.998;2023-06-14T11:19:05;30.50;93.60
48946;DHT22;34999;50.940;3.998;2023-06-14T11:21:40;30.50;92.90
48946;DHT22;34999;50.940;3.998;2023-06-14T11:24:10;30.50;93.40
48946;DHT22;34999;50.940;3.998;2023-06-14T11:26:40;30.50;93.70
48946;DHT22;34999;50.940;3.998;2023-06-14T11:29:08;30.40;92.30
48946;DHT22;34999;50.940;3.998;2023-06-14T11:35:19;30.40;93.20
48946;DHT22;34999;50.940;3.998;2023-06-14T11:41:37;30.50;91.60
48946;DHT22;34999;50.940;3.998;2023-06-14T11:44:06;30.40;90.30
48946;DHT22;34999;50.940;3.998;2023-06-14T11:46:35;30.40;91.00
48946;DHT22;34999;50.940;3.998;2023-06-14T11:49:04;30.50;91.60
48946;DHT22;34999;50.940;3.998;2023-06-14T11:51:35;30.50;91.30
48946;DHT22;34999;50.940;3.998;2023-06-14T11:54:05;30.50;88.30
48946;DHT22;34999;50.940;3.998;2023-06-14T11:56:36;30.30;90.00
48946;DHT22;34999;50.940;3.998;2023-06-14T11:59:05;30.40;90.00
48946;DHT22;34999;50.940;3.998;2023-06-14T12:01:36;30.40;90.20
48946;DHT22;34999;50.940;3.998;2023-06-14T12:04:09;30.40;88.90
48946;DHT22;34999;50.940;3.998;2023-06-14T12:06:38;30.30;87.00
48946;DHT22;34999;50.940;3.998;2023-06-14T12:09:08;30.20;89.20
48946;DHT22;34999;50.940;3.998;2023-06-14T12:11:42;30.00;86.70
48946;DHT22;34999;50.940;3.998;2023-06-14T12:14:10;29.90;88.90
48946;DHT22;34999;50.940;3.998;2023-06-14T12:16:40;29.90;85.30
48946;DHT22;34999;50.940;3.998;2023-06-14T12:19:12;29.90;87.80
48946;DHT22;34999;50.940;3.998;2023-06-14T12:21:41;30.00;88.00
48946;DHT22;34999;50.940;3.998;2023-06-14T12:24:11;30.30;91.80
48946;DHT22;34999;50.940;3.998;2023-06-14T12:34:04;30.60;85.90
48946;DHT22;34999;50.940;3.998;2023-06-14T12:36:32;30.20;87.90
48946;DHT22;34999;50.940;3.998;2023-06-14T12:39:02;30.10;90.10
48946;DHT22;34999;50.940;3.998;2023-06-14T12:41:31;30.10;84.40
48946;DHT22;34999;50.940;3.998;2023-06-14T12:44:01;30.10;91.10
48946;DHT22;34999;50.940;3.998;2023-06-14T12:57:34;30.30;90.80
48946;DHT22;34999;50.940;3.998;2023-06-14T13:00:05;30.40;89.10
48946;DHT22;34999;50.940;3.998;2023-06-14T13:02:34;30.50;90.90
48946;DHT22;34999;50.940;3.998;2023-06-14T13:05:03;30.50;87.60
48946;DHT22;34999;50.940;3.998;2023-06-14T13:07:32;30.60;90.10
48946;DHT22;34999;50.940;3.998;2023-06-14T13:10:00;30.60;88.40
48946;DHT22;34999;50.940;3.998;2023-06-14T13:12:28;30.60;87.40
48946;DHT22;34999;50.940;3.998;2023-06-14T13:14:58;30.20;83.50
48946;DHT22;34999;50.940;3.998;2023-06-14T13:17:26;30.10;85.30
48946;DHT22;34999;50.940;3.998;2023-06-14T13:19:54;30.10;86.40
48946;DHT22;34999;50.940;3.998;2023-06-14T13:22:30;30.00;84.20
48946;DHT22;34999;50.940;3.998;2023-06-14T13:24:59;30.30;89.00
48946;DHT22;34999;50.940;3.998;2023-06-14T13:27:27;30.80;90.20
48946;DHT22;34999;50.940;3.998;2023-06-14T13:29:56;31.20;88.90
48946;DHT22;34999;50.940;3.998;2023-06-14T13:32:24;31.30;88.40
48946;DHT22;34999;50.940;3.998;2023-06-14T13:34:52;31.30;86.40
48946;DHT22;34999;50.940;3.998;2023-06-14T13:37:21;31.60;88.30
48946;DHT22;34999;50.940;3.998;2023-06-14T13:39:51;31.80;86.70
48946;DHT22;34999;50.940;3.998;2023-06-14T13:42:19;31.80;83.00
48946;DHT22;34999;50.940;3.998;2023-06-14T13:48:28;32.10;84.70
48946;DHT22;34999;50.940;3.998;2023-06-14T13:54:37;31.90;83.90
48946;DHT22;34999;50.940;3.998;2023-06-14T13:57:06;31.50;79.80
48946;DHT22;34999;50.940;3.998;2023-06-14T13:59:35;31.40;80.10
48946;DHT22;34999;50.940;3.998;2023-06-14T14:02:05;31.10;77.50
48946;DHT22;34999;50.940;3.998;2023-06-14T14:04:34;31.00;82.60
48946;DHT22;34999;50.940;3.998;2023-06-14T14:07:03;31.10;82.00
48946;DHT22;34999;50.940;3.998;2023-06-14T14:09:32;31.30;83.80
48946;DHT22;34999;50.940;3.998;2023-06-14T14:12:01;31.50;82.10
48946;DHT22;34999;50.940;3.998;2023-06-14T14:14:32;31.50;83.30
48946;DHT22;34999;50.940;3.998;2023-06-14T14:20:41;32.10;83.50
48946;DHT22;34999;50.940;3.998;2023-06-14T14:26:16;32.20;79.10
48946;DHT22;34999;50.940;3.998;2023-06-14T14:28:44;31.80;78.10
48946;DHT22;34999;50.940;3.998;2023-06-14T14:31:14;31.70;83.20
48946;DHT22;34999;50.940;3.998;2023-06-14T14:33:42;32.00;82.20
48946;DHT22;34999;50.940;3.998;2023-06-14T14:36:11;31.80;75.20
48946;DHT22;34999;50.940;3.998;2023-06-14T14:38:40;31.40;78.20
48946;DHT22;34999;50.940;3.998;2023-06-14T14:41:08;31.30;79.30
48946;DHT22;34999;50.940;3.998;2023-06-14T14:43:37;31.60;81.80
48946;DHT22;34999;50.940;3.998;2023-06-14T14:46:05;31.90;79.10
48946;DHT22;34999;50.940;3.998;2023-06-14T14:48:36;32.00;76.00
48946;DHT22;34999;50.940;3.998;2023-06-14T14:51:04;32.20;79.20
48946;DHT22;34999;50.940;3.998;2023-06-14T14:53:32;32.30;76.90
48946;DHT22;34999;50.940;3.998;2023-06-14T14:56:01;32.50;81.50
48946;DHT22;34999;50.940;3.998;2023-06-14T14:58:32;32.60;74.70
48946;DHT22;34999;50.940;3.998;2023-06-14T15:01:00;32.60;76.40
48946;DHT22;34999;50.940;3.998;2023-06-14T15:03:29;32.70;77.50
48946;DHT22;34999;50.940;3.998;2023-06-14T15:06:17;32.70;73.10
48946;DHT22;34999;50.940;3.998;2023-06-14T15:16:06;32.00;78.10
48946;DHT22;34999;50.940;3.998;2023-06-14T15:18:35;32.20;73.10
48946;DHT22;34999;50.940;3.998;2023-06-14T15:21:03;32.00;76.90
48946;DHT22;34999;50.940;3.998;2023-06-14T15:23:32;32.30;73.30
48946;DHT22;34999;50.940;3.998;2023-06-14T15:26:01;32.10;70.50
48946;DHT22;34999;50.940;3.998;2023-06-14T15:28:29;31.90;72.00
48946;DHT22;34999;50.940;3.998;2023-06-14T15:30:59;31.90;73.80
48946;DHT22;34999;50.940;3.998;2023-06-14T15:33:28;32.30;77.60
48946;DHT22;34999;50.940;3.998;2023-06-14T15:35:56;32.60;75.60
48946;DHT22;34999;50.940;3.998;2023-06-14T15:38:25;32.70;73.30
48946;DHT22;34999;50.940;3.998;2023-06-14T15:40:55;32.50;69.20
48946;DHT22;34999;50.940;3.998;2023-06-14T15:43:23;32.50;72.00
48946;DHT22;34999;50.940;3.998;2023-06-14T15:46:12;32.50;69.60
48946;DHT22;34999;50.940;3.998;2023-06-14T15:48:41;32.40;69.30
48946;DHT22;34999;50.940;3.998;2023-06-14T15:54:50;32.40;72.50
48946;DHT22;34999;50.940;3.998;2023-06-14T15:57:20;32.80;70.70
48946;DHT22;34999;50.940;3.998;2023-06-14T15:59:48;32.70;71.30
48946;DHT22;34999;50.940;3.998;2023-06-14T16:02:16;32.30;70.60
48946;DHT22;34999;50.940;3.998;2023-06-14T16:04:45;32.20;72.10
48946;DHT22;34999;50.940;3.998;2023-06-14T16:07:13;32.30;72.10
48946;DHT22;34999;50.940;3.998;2023-06-14T16:09:42;32.60;72.70
48946;DHT22;34999;50.940;3.998;2023-06-14T16:12:10;32.50;70.80
48946;DHT22;34999;50.940;3.998;2023-06-14T16:14:41;32.30;72.70
48946;DHT22;34999;50.940;3.998;2023-06-14T16:17:09;32.40;72.60
48946;DHT22;34999;50.940;3.998;2023-06-14T16:19:38;32.60;73.50
48946;DHT22;34999;50.940;3.998;2023-06-14T16:22:06;32.70;73.50
48946;DHT22;34999;50.940;3.998;2023-06-14T16:24:34;32.60;74.20
48946;DHT22;34999;50.940;3.998;2023-06-14T16:27:03;32.60;72.50
48946;DHT22;34999;50.940;3.998;2023-06-14T16:29:33;32.80;73.60
48946;DHT22;34999;50.940;3.998;2023-06-14T16:32:03;32.50;68.90
48946;DHT22;34999;50.940;3.998;2023-06-14T16:34:32;32.50;70.10
48946;DHT22;34999;50.940;3.998;2023-06-14T16:37:02;32.30;69.40
48946;DHT22;34999;50.940;3.998;2023-06-14T16:39:31;32.10;68.60
48946;DHT22;34999;50.940;3.998;2023-06-14T16:42:00;32.20;69.40
48946;DHT22;34999;50.940;3.998;2023-06-14T16:44:28;32.20;71.20
48946;DHT22;34999;50.940;3.998;2023-06-14T16:46:56;32.00;70.60